Time;durP1;ratioP1;P1;durP2;ratioP2;P2;SDS_P1;SDS_P2;PMS_P1;PMS_P2;Temp;Humidity;BMP_temperature;BMP_pressure;BME280_temperature;BME280_humidity;BME280_pressure;Samples;Min_cycle;Max_cycle;Signal;HPM_P1;HPM_P2
2022/12/11 00:02:00;;;;;;;17.30;15.73;;;9.90;86.00;;;;;;5053903;28;20020;-84
2022/12/11 00:04:26;;;;;;;17.65;16.02;;;9.90;85.90;;;;;;5038065;28;20064;-85
2022/12/11 00:06:52;;;;;;;17.23;15.63;;;10.00;85.90;;;;;;5040952;28;20025;-85
2022/12/11 00:09:18;;;;;;;17.55;15.88;;;10.00;85.90;;;;;;5057888;28;20067;-84
2022/12/11 00:11:44;;;;;;;16.85;15.25;;;10.00;85.90;;;;;;5036053;28;20117;-83
2022/12/11 00:14:10;;;;;;;18.17;16.40;;;10.00;85.90;;;;;;5040599;28;20445;-84
2022/12/11 00:16:35;;;;;;;18.08;16.33;;;10.00;85.70;;;;;;5040435;28;20025;-85
2022/12/11 00:19:01;;;;;;;18.80;17.02;;;10.00;85.70;;;;;;5040657;28;20496;-82
2022/12/11 00:21:27;;;;;;;17.42;15.80;;;10.00;85.60;;;;;;5056630;28;20040;-83
2022/12/11 00:23:52;;;;;;;17.55;15.88;;;10.00;85.70;;;;;;5055686;28;20029;-84
2022/12/11 00:26:18;;;;;;;18.08;16.38;;;10.00;85.70;;;;;;5052815;28;20024;-84
2022/12/11 00:28:44;;;;;;;18.52;16.83;;;10.00;85.60;;;;;;5044616;28;20055;-85
2022/12/11 00:31:14;;;;;;;19.55;17.65;;;10.00;85.60;;;;;;5045281;28;20476;-84
2022/12/11 00:33:40;;;;;;;19.05;17.15;;;10.00;85.60;;;;;;5053000;28;20112;-85
2022/12/11 00:36:15;;;;;;;18.80;16.90;;;10.00;85.70;;;;;;5025211;28;20033;-84
2022/12/11 00:38:41;;;;;;;18.65;16.75;;;10.00;85.70;;;;;;5047471;28;20026;-84
2022/12/11 00:41:07;;;;;;;18.50;16.67;;;10.00;85.80;;;;;;5038992;28;20032;-83
2022/12/11 00:43:32;;;;;;;18.40;16.60;;;9.90;85.80;;;;;;5038350;28;20428;-85
2022/12/11 00:45:58;;;;;;;17.85;16.23;;;9.90;85.80;;;;;;5061733;28;20036;-84
2022/12/11 00:48:23;;;;;;;18.27;16.55;;;9.90;85.90;;;;;;5054454;28;20033;-84
2022/12/11 00:50:49;;;;;;;17.45;15.82;;;9.90;85.90;;;;;;5022579;28;20405;-84
2022/12/11 00:53:14;;;;;;;17.58;15.98;;;9.90;86.00;;;;;;5034690;28;20478;-84
2022/12/11 00:55:41;;;;;;;17.73;16.02;;;9.90;86.00;;;;;;5033455;28;20029;-84
2022/12/11 00:58:08;;;;;;;18.45;16.65;;;9.90;86.00;;;;;;5042355;28;20104;-84
2022/12/11 01:00:33;;;;;;;18.30;16.58;;;9.90;86.00;;;;;;5039591;28;20121;-84
2022/12/11 01:02:59;;;;;;;17.90;16.10;;;9.90;86.10;;;;;;5051071;28;20060;-84
2022/12/11 01:05:24;;;;;;;18.15;16.35;;;9.90;86.10;;;;;;5050832;28;20017;-84
2022/12/11 01:07:50;;;;;;;17.73;16.02;;;9.90;86.10;;;;;;5041196;28;20029;-85
2022/12/11 01:10:24;;;;;;;17.70;16.00;;;9.90;86.10;;;;;;5059365;28;20071;-85
2022/12/11 01:13:02;;;;;;;18.15;16.45;;;9.90;86.10;;;;;;5035860;28;20021;-85
2022/12/11 01:15:31;;;;;;;17.67;16.00;;;9.90;86.10;;;;;;5039054;28;20446;-84
2022/12/11 01:17:56;;;;;;;19.08;17.20;;;9.80;86.00;;;;;;5017167;28;20029;-84
2022/12/11 01:20:23;;;;;;;18.88;16.95;;;9.90;86.10;;;;;;5025853;28;20028;-84
2022/12/11 01:22:58;;;;;;;18.30;16.50;;;9.80;86.10;;;;;;5037752;28;20079;-84
2022/12/11 01:25:25;;;;;;;18.38;16.70;;;9.80;86.00;;;;;;5051616;28;20024;-85
2022/12/11 01:27:53;;;;;;;17.65;15.95;;;9.80;86.00;;;;;;5062537;28;20055;-85
2022/12/11 01:30:22;;;;;;;17.48;15.82;;;9.90;86.10;;;;;;5061729;28;20025;-85
2022/12/11 01:32:48;;;;;;;17.60;15.98;;;9.80;86.00;;;;;;5041546;28;20029;-84
2022/12/11 01:35:14;;;;;;;18.25;16.45;;;9.80;86.00;;;;;;5058309;28;20110;-84
2022/12/11 01:37:40;;;;;;;17.42;15.73;;;9.80;86.00;;;;;;5043883;28;20028;-85
2022/12/11 01:40:07;;;;;;;18.13;16.33;;;9.80;86.10;;;;;;5042705;28;20400;-84
2022/12/11 01:42:33;;;;;;;18.08;16.35;;;9.80;86.00;;;;;;5042412;28;20494;-84
2022/12/11 01:45:27;;;;;;;17.98;16.27;;;9.80;86.00;;;;;;5042961;28;20017;-84
2022/12/11 01:48:01;;;;;;;17.50;15.70;;;9.80;86.00;;;;;;5060021;28;20099;-84
2022/12/11 01:50:29;;;;;;;17.98;16.27;;;9.80;86.10;;;;;;5042050;28;20451;-84
2022/12/11 01:52:55;;;;;;;18.17;16.38;;;9.80;86.10;;;;;;5041473;28;20068;-84
2022/12/11 01:55:21;;;;;;;18.65;16.73;;;9.80;86.00;;;;;;5042496;28;20025;-84
2022/12/11 01:57:49;;;;;;;17.75;15.95;;;9.80;86.60;;;;;;5040450;28;20025;-85
2022/12/11 02:00:16;;;;;;;17.85;15.98;;;9.80;86.00;;;;;;5032512;28;20025;-85
2022/12/11 02:02:41;;;;;;;18.85;16.95;;;9.90;85.90;;;;;;5041675;28;20550;-84
2022/12/11 02:05:07;;;;;;;18.02;16.17;;;9.80;85.90;;;;;;5050681;28;20033;-85
2022/12/11 02:07:55;;;;;;;18.85;16.95;;;9.80;86.40;;;;;;5048688;28;20025;-85
2022/12/11 02:10:27;;;;;;;17.33;15.52;;;9.80;86.00;;;;;;5052542;28;20025;-84
2022/12/11 02:12:59;;;;;;;17.88;16.10;;;9.80;86.00;;;;;;5048276;28;20103;-84
2022/12/11 02:15:36;;;;;;;18.52;16.63;;;9.80;85.90;;;;;;5048136;28;20059;-84
2022/12/11 02:18:15;;;;;;;18.00;16.20;;;9.80;86.00;;;;;;5039268;28;20115;-84
2022/12/11 02:21:06;;;;;;;18.27;16.52;;;9.80;85.90;;;;;;5040620;28;20028;-84
2022/12/11 02:24:07;;;;;;;17.63;15.90;;;9.80;86.00;;;;;;5048432;28;20141;-84
2022/12/11 02:26:58;;;;;;;18.17;16.38;;;9.80;86.00;;;;;;5038837;28;20548;-84
2022/12/11 02:29:44;;;;;;;18.23;16.38;;;9.80;85.90;;;;;;5049472;28;20025;-84
2022/12/11 02:32:19;;;;;;;18.13;16.33;;;9.80;85.90;;;;;;5035715;28;20493;-84
2022/12/11 02:34:56;;;;;;;17.48;15.75;;;9.80;85.90;;;;;;5038530;28;20552;-84
2022/12/11 02:37:25;;;;;;;18.70;16.75;;;9.80;85.90;;;;;;5062804;28;20093;-84
2022/12/11 02:39:53;;;;;;;18.38;16.60;;;9.80;85.80;;;;;;5057697;28;20036;-84
2022/12/11 02:42:20;;;;;;;19.73;17.73;;;9.80;85.90;;;;;;5051358;28;20021;-85
2022/12/11 02:44:49;;;;;;;17.33;15.52;;;9.80;85.90;;;;;;5038213;28;20029;-84
2022/12/11 02:47:17;;;;;;;18.27;16.40;;;9.80;85.90;;;;;;5019392;28;20444;-84
2022/12/11 02:49:45;;;;;;;17.27;15.57;;;9.80;85.90;;;;;;5020181;28;20060;-84
2022/12/11 02:52:13;;;;;;;18.17;16.45;;;9.80;85.80;;;;;;5039697;28;20032;-84
2022/12/11 02:54:41;;;;;;;17.42;15.68;;;9.80;85.80;;;;;;5060810;28;20021;-85
2022/12/11 02:57:20;;;;;;;17.85;16.02;;;9.80;86.30;;;;;;5056025;28;20122;-84
2022/12/11 02:59:46;;;;;;;18.25;16.35;;;9.80;85.90;;;;;;5038679;28;20033;-83
2022/12/11 03:02:14;;;;;;;18.42;16.52;;;9.80;85.80;;;;;;5051199;28;20543;-85
2022/12/11 03:04:40;;;;;;;17.70;16.00;;;9.80;85.90;;;;;;5038978;28;20041;-82
2022/12/11 03:07:14;;;;;;;18.58;16.73;;;9.80;85.90;;;;;;5051809;28;20235;-84
2022/12/11 03:09:41;;;;;;;19.27;17.42;;;9.80;86.10;;;;;;5036774;28;20057;-84
2022/12/11 03:12:09;;;;;;;17.25;15.55;;;9.80;85.80;;;;;;5032216;28;20044;-85
2022/12/11 03:14:36;;;;;;;17.98;16.20;;;9.80;85.90;;;;;;5037032;28;20401;-84
2022/12/11 03:17:21;;;;;;;17.70;15.95;;;9.80;85.70;;;;;;5037212;28;20025;-84
2022/12/11 03:19:59;;;;;;;18.52;16.63;;;9.90;85.70;;;;;;5034618;28;20060;-85
2022/12/11 03:22:37;;;;;;;17.58;15.88;;;9.90;85.60;;;;;;5032080;28;20060;-85
2022/12/11 03:25:08;;;;;;;18.60;16.70;;;9.90;85.50;;;;;;5035923;28;20105;-84
2022/12/11 03:27:47;;;;;;;17.97;16.07;;;9.90;85.60;;;;;;5037786;28;20473;-85
2022/12/11 03:30:18;;;;;;;18.13;16.25;;;9.90;85.50;;;;;;5035945;28;20021;-84
2022/12/11 03:33:28;;;;;;;17.63;15.93;;;9.90;85.30;;;;;;5044944;28;20029;-84
2022/12/11 03:35:59;;;;;;;18.58;16.70;;;9.90;85.40;;;;;;5001941;28;20112;-83
2022/12/11 03:38:36;;;;;;;18.85;16.92;;;9.90;85.40;;;;;;5040495;28;20017;-84
2022/12/11 03:41:05;;;;;;;17.67;15.98;;;9.80;85.50;;;;;;5037201;28;20044;-83
2022/12/11 03:43:31;;;;;;;17.83;16.02;;;9.80;85.60;;;;;;5056737;28;20024;-85
2022/12/11 03:45:58;;;;;;;18.02;16.23;;;9.80;85.60;;;;;;5051560;28;20021;-84
2022/12/11 03:48:29;;;;;;;18.52;16.65;;;9.80;85.70;;;;;;5035960;28;20024;-84
2022/12/11 03:50:55;;;;;;;17.52;15.82;;;9.80;85.70;;;;;;5041177;28;20018;-85
2022/12/11 03:53:22;;;;;;;18.63;16.73;;;9.80;85.70;;;;;;5065526;28;20037;-84
2022/12/11 03:55:50;;;;;;;17.73;16.02;;;9.80;85.80;;;;;;5065192;28;20495;-85
2022/12/11 03:58:15;;;;;;;18.15;16.33;;;9.80;85.80;;;;;;5065039;28;20024;-85
2022/12/11 04:00:41;;;;;;;18.27;16.48;;;9.70;85.80;;;;;;5055627;28;20018;-85
2022/12/11 04:03:12;;;;;;;18.02;16.15;;;9.80;85.90;;;;;;5042769;28;20028;-85
2022/12/11 04:05:46;;;;;;;18.27;16.33;;;9.70;85.80;;;;;;5043815;28;20025;-85
2022/12/11 04:08:12;;;;;;;18.10;16.23;;;9.70;85.90;;;;;;5045276;28;20079;-84
2022/12/11 04:10:39;;;;;;;18.23;16.33;;;9.70;85.90;;;;;;5054660;28;20572;-84
2022/12/11 04:13:04;;;;;;;18.48;16.67;;;9.70;85.90;;;;;;5058667;28;20022;-84
2022/12/11 04:15:30;;;;;;;18.23;16.33;;;9.70;85.80;;;;;;5032700;28;20048;-85
2022/12/11 04:26:25;;;;;;;17.92;16.13;;;9.70;85.80;;;;;;5035700;28;20064;-84
2022/12/11 04:28:51;;;;;;;18.50;16.58;;;9.70;85.80;;;;;;5017531;28;20021;-84
2022/12/11 04:31:20;;;;;;;17.30;15.70;;;9.70;85.80;;;;;;5017133;28;20029;-82
2022/12/11 04:33:46;;;;;;;17.77;16.10;;;9.70;85.80;;;;;;5023027;28;20033;-84
2022/12/11 04:36:13;;;;;;;17.75;15.90;;;9.70;85.80;;;;;;5041781;28;20527;-84
2022/12/11 04:38:38;;;;;;;18.15;16.38;;;9.70;85.80;;;;;;5032016;28;20033;-84
2022/12/11 04:41:07;;;;;;;17.98;16.20;;;9.70;85.80;;;;;;5015903;28;20036;-83
2022/12/11 04:43:33;;;;;;;17.42;15.63;;;9.70;86.30;;;;;;5034153;28;20064;-84
2022/12/11 04:46:08;;;;;;;17.80;16.10;;;9.70;85.80;;;;;;5053075;28;20034;-84
2022/12/11 04:48:34;;;;;;;18.85;16.88;;;9.70;85.80;;;;;;5043907;28;20025;-84
2022/12/11 04:51:00;;;;;;;17.55;15.85;;;9.70;85.80;;;;;;5065525;28;20030;-84
2022/12/11 04:53:26;;;;;;;17.27;15.48;;;9.70;85.70;;;;;;5043017;28;20018;-85
2022/12/11 04:55:51;;;;;;;18.77;16.98;;;9.70;85.80;;;;;;5049905;28;20025;-85
2022/12/11 04:58:17;;;;;;;17.58;15.88;;;9.70;85.80;;;;;;5045784;28;20025;-85
2022/12/11 05:00:43;;;;;;;17.63;15.85;;;9.70;85.80;;;;;;5027960;28;20022;-83
2022/12/11 05:03:08;;;;;;;17.60;15.90;;;9.70;85.80;;;;;;5024975;28;20084;-83
2022/12/11 05:05:34;;;;;;;17.50;15.80;;;9.70;85.80;;;;;;5058953;28;20477;-84
2022/12/11 05:07:59;;;;;;;17.08;15.38;;;9.70;85.70;;;;;;5053805;28;20029;-84
2022/12/11 05:10:25;;;;;;;17.65;15.95;;;9.70;85.70;;;;;;5033980;28;20021;-84
2022/12/11 05:12:50;;;;;;;18.00;16.20;;;9.70;85.70;;;;;;5048167;28;20037;-84
2022/12/11 05:15:16;;;;;;;18.63;16.73;;;9.70;85.70;;;;;;5040002;28;20044;-84
2022/12/11 05:17:41;;;;;;;18.20;16.35;;;9.70;85.70;;;;;;5040065;28;20048;-84
2022/12/11 05:20:08;;;;;;;17.83;16.02;;;9.70;86.20;;;;;;5040214;28;20702;-84
2022/12/11 05:22:34;;;;;;;18.08;16.17;;;9.70;85.70;;;;;;5037584;28;20034;-85
2022/12/11 05:24:59;;;;;;;17.58;15.75;;;9.70;85.70;;;;;;5040325;28;20043;-84
2022/12/11 05:27:25;;;;;;;18.33;16.50;;;9.70;86.20;;;;;;5040087;28;20029;-84
2022/12/11 05:29:51;;;;;;;18.05;16.25;;;9.70;85.70;;;;;;5038716;28;20050;-84
2022/12/11 05:32:16;;;;;;;17.73;15.93;;;9.70;85.70;;;;;;5032306;28;20508;-84
2022/12/11 05:34:42;;;;;;;17.85;16.05;;;9.70;85.70;;;;;;5039109;28;20020;-84
2022/12/11 05:37:08;;;;;;;17.75;15.90;;;9.70;85.60;;;;;;5042404;28;20423;-84
2022/12/11 05:39:34;;;;;;;17.50;15.60;;;9.70;85.70;;;;;;5057146;28;20040;-85
2022/12/11 05:41:59;;;;;;;18.20;16.30;;;9.70;85.60;;;;;;5061128;28;20029;-84
2022/12/11 05:44:25;;;;;;;19.08;17.08;;;9.70;85.70;;;;;;5062556;28;20075;-83
2022/12/11 05:46:50;;;;;;;17.27;15.57;;;9.70;85.60;;;;;;5059847;28;20028;-84
2022/12/11 05:49:16;;;;;;;17.83;15.70;;;9.70;85.60;;;;;;5032329;28;20020;-83
2022/12/11 05:51:42;;;;;;;17.88;16.08;;;9.70;86.10;;;;;;5059138;28;20074;-85
2022/12/11 05:54:08;;;;;;;16.73;15.02;;;9.70;85.60;;;;;;5043213;28;20092;-84
2022/12/11 05:56:34;;;;;;;17.98;16.08;;;9.70;85.60;;;;;;5061739;28;20456;-84
2022/12/11 05:59:01;;;;;;;17.40;15.60;;;9.70;85.60;;;;;;5040528;28;20021;-84
2022/12/11 06:01:46;;;;;;;18.40;16.50;;;9.70;85.50;;;;;;5057562;28;20025;-82
2022/12/11 06:04:12;;;;;;;17.13;15.32;;;9.70;85.50;;;;;;5037284;28;20037;-84
2022/12/11 06:06:39;;;;;;;17.00;15.27;;;9.70;85.50;;;;;;5057831;28;20568;-84
2022/12/11 06:09:06;;;;;;;18.55;16.60;;;9.70;85.60;;;;;;5061484;28;20481;-84
2022/12/11 06:11:32;;;;;;;18.35;16.50;;;9.70;85.40;;;;;;5041720;28;20021;-82
2022/12/11 06:13:59;;;;;;;17.27;15.45;;;9.70;85.50;;;;;;5058341;28;20509;-80
2022/12/11 06:16:25;;;;;;;18.00;16.10;;;9.70;85.60;;;;;;5057588;28;20029;-81
2022/12/11 06:18:51;;;;;;;18.17;16.38;;;9.70;85.40;;;;;;5057988;28;20078;-82
2022/12/11 06:21:25;;;;;;;17.55;15.68;;;9.70;85.40;;;;;;5058671;28;20037;-83
2022/12/11 06:23:52;;;;;;;17.42;15.63;;;9.70;85.60;;;;;;5040332;28;20480;-81
2022/12/11 06:26:18;;;;;;;17.73;15.70;;;9.70;85.50;;;;;;5052747;28;20036;-80
2022/12/11 06:28:45;;;;;;;17.92;15.98;;;9.70;85.60;;;;;;5039087;28;20025;-80
2022/12/11 06:31:11;;;;;;;18.02;16.15;;;9.70;85.70;;;;;;5058449;28;20033;-81
2022/12/11 06:33:36;;;;;;;17.83;15.93;;;9.70;85.70;;;;;;5049190;28;20093;-82
2022/12/11 06:36:04;;;;;;;17.00;15.30;;;9.70;85.60;;;;;;5057812;28;20095;-81
2022/12/11 06:38:30;;;;;;;18.15;16.25;;;9.70;85.30;;;;;;5057389;28;20017;-81
2022/12/11 06:40:57;;;;;;;17.15;15.38;;;9.70;85.30;;;;;;5038182;28;20108;-81
2022/12/11 06:43:23;;;;;;;17.33;15.52;;;9.70;85.40;;;;;;5049563;28;20025;-81
2022/12/11 06:45:49;;;;;;;17.88;16.08;;;9.80;85.40;;;;;;5028367;28;20053;-82
2022/12/11 06:48:15;;;;;;;18.15;16.25;;;9.70;85.10;;;;;;5036644;28;20021;-82
2022/12/11 06:50:41;;;;;;;17.83;16.02;;;9.80;85.30;;;;;;5020733;28;20441;-83
2022/12/11 06:53:06;;;;;;;17.73;15.88;;;9.80;85.20;;;;;;5051279;28;20025;-83
2022/12/11 06:55:35;;;;;;;19.02;17.02;;;9.80;85.20;;;;;;5055253;28;20099;-82
2022/12/11 06:58:01;;;;;;;20.58;17.88;;;9.80;85.70;;;;;;5050627;28;20511;-83
2022/12/11 07:00:27;;;;;;;18.33;16.42;;;9.70;85.10;;;;;;5046898;28;20028;-82
2022/12/11 07:02:52;;;;;;;18.05;16.25;;;9.80;85.10;;;;;;5055832;28;20039;-81
2022/12/11 07:05:18;;;;;;;18.70;16.80;;;9.80;85.20;;;;;;5037857;28;20033;-80
2022/12/11 07:07:44;;;;;;;18.85;16.95;;;9.70;85.00;;;;;;5044165;28;20029;-82
2022/12/11 07:10:09;;;;;;;19.25;17.20;;;9.70;85.00;;;;;;5053343;28;20426;-82
2022/12/11 07:12:35;;;;;;;18.23;16.25;;;9.70;85.00;;;;;;5034770;28;20450;-82
2022/12/11 07:15:01;;;;;;;19.15;17.15;;;9.70;85.10;;;;;;5032874;28;20095;-81
2022/12/11 07:17:28;;;;;;;23.60;16.70;;;9.70;85.10;;;;;;5031646;28;20021;-83
2022/12/11 07:19:53;;;;;;;18.58;16.60;;;9.70;85.20;;;;;;5052060;28;20504;-83
2022/12/11 07:22:19;;;;;;;17.30;15.60;;;9.70;85.30;;;;;;5039178;28;20069;-83
2022/12/11 07:24:45;;;;;;;18.30;16.50;;;9.60;85.30;;;;;;5055290;28;20036;-82
2022/12/11 07:27:10;;;;;;;18.05;16.25;;;9.70;85.30;;;;;;5042764;28;20390;-82
2022/12/11 07:29:36;;;;;;;18.42;16.52;;;9.60;85.40;;;;;;5060770;28;20095;-82
2022/12/11 07:32:01;;;;;;;18.77;16.77;;;9.60;85.40;;;;;;5061006;28;20052;-83
2022/12/11 07:34:27;;;;;;;18.00;16.10;;;9.60;85.50;;;;;;5036132;28;20496;-83
2022/12/11 07:36:52;;;;;;;18.13;16.27;;;9.60;85.40;;;;;;5050065;28;20033;-83
2022/12/11 07:39:18;;;;;;;18.05;15.95;;;9.60;85.40;;;;;;5023268;28;20025;-83
2022/12/11 07:41:45;;;;;;;18.13;15.45;;;9.60;85.20;;;;;;5022050;28;20481;-81
2022/12/11 07:44:11;;;;;;;19.65;16.20;;;9.60;85.10;;;;;;5029865;28;20072;-82
2022/12/11 07:46:37;;;;;;;18.27;16.17;;;9.60;84.60;;;;;;5052043;28;20396;-81
2022/12/11 07:49:04;;;;;;;17.08;15.27;;;9.50;84.50;;;;;;5032265;28;20032;-82
2022/12/11 07:51:34;;;;;;;18.48;15.30;;;9.60;85.20;;;;;;5054937;28;20058;-79
2022/12/11 07:54:15;;;;;;;17.30;14.85;;;9.60;84.80;;;;;;5058879;28;20017;-81
2022/12/11 07:56:44;;;;;;;21.60;15.40;;;9.60;84.90;;;;;;5050831;28;20032;-82
2022/12/11 07:59:09;;;;;;;19.80;16.10;;;9.60;84.90;;;;;;5055886;28;20029;-82
2022/12/11 08:01:36;;;;;;;19.27;15.75;;;9.50;85.00;;;;;;5057735;28;20099;-81
2022/12/11 08:04:03;;;;;;;17.67;14.88;;;9.60;85.10;;;;;;5054341;28;20092;-80
2022/12/11 08:06:32;;;;;;;17.48;15.27;;;9.60;85.00;;;;;;5055330;28;20025;-81
2022/12/11 08:08:59;;;;;;;17.52;15.68;;;9.60;85.00;;;;;;5055231;28;20086;-83
2022/12/11 08:11:25;;;;;;;18.67;15.75;;;9.60;85.10;;;;;;5057966;28;20030;-82
2022/12/11 08:13:50;;;;;;;20.42;15.98;;;9.60;85.60;;;;;;5045020;28;20025;-82
2022/12/11 08:16:17;;;;;;;18.98;16.23;;;9.50;85.10;;;;;;5022089;28;20497;-83
2022/12/11 08:18:43;;;;;;;20.05;15.18;;;9.60;85.20;;;;;;5040376;28;20025;-83
2022/12/11 08:21:15;;;;;;;17.60;14.88;;;9.60;85.20;;;;;;5038828;28;20444;-82
2022/12/11 08:23:42;;;;;;;19.95;14.88;;;9.60;85.20;;;;;;5056482;28;20039;-82
2022/12/11 08:26:16;;;;;;;17.45;14.82;;;9.60;85.20;;;;;;5041457;28;20484;-83
2022/12/11 08:28:42;;;;;;;19.58;15.05;;;9.60;85.70;;;;;;5059827;28;20024;-82
2022/12/11 08:31:09;;;;;;;20.17;15.68;;;9.60;85.20;;;;;;5041253;28;20032;-81
2022/12/11 08:33:36;;;;;;;17.30;15.20;;;9.60;85.20;;;;;;5041100;28;20020;-81
2022/12/11 08:36:04;;;;;;;17.48;15.15;;;9.60;85.20;;;;;;5046765;28;20033;-83
2022/12/11 08:38:30;;;;;;;17.60;14.45;;;9.60;85.20;;;;;;5037710;28;20021;-81
2022/12/11 08:40:56;;;;;;;17.52;15.10;;;9.50;85.20;;;;;;5057480;28;20111;-82
2022/12/11 08:43:21;;;;;;;18.00;15.35;;;9.50;85.10;;;;;;5039474;28;20029;-81
2022/12/11 08:45:47;;;;;;;18.17;15.27;;;9.60;85.20;;;;;;5058607;28;20028;-82
2022/12/11 08:48:12;;;;;;;17.00;14.90;;;9.50;85.20;;;;;;5058248;28;20051;-83
2022/12/11 08:50:38;;;;;;;16.98;14.40;;;9.60;85.30;;;;;;5058686;28;20473;-83
2022/12/11 08:53:03;;;;;;;20.48;16.42;;;9.60;85.20;;;;;;5058110;28;20060;-81
2022/12/11 08:55:30;;;;;;;17.85;15.32;;;9.60;85.20;;;;;;5038036;28;20480;-83
2022/12/11 08:57:56;;;;;;;16.77;14.70;;;9.50;85.20;;;;;;5038262;28;20093;-80
2022/12/11 09:00:21;;;;;;;17.73;15.32;;;9.50;85.20;;;;;;5046591;28;20115;-82
2022/12/11 09:02:47;;;;;;;17.38;14.85;;;9.50;85.20;;;;;;5055580;28;20108;-81
2022/12/11 09:05:12;;;;;;;17.38;14.18;;;9.60;85.20;;;;;;5037088;28;20039;-83
2022/12/11 09:07:38;;;;;;;16.75;14.23;;;9.50;85.10;;;;;;5055422;28;20029;-80
2022/12/11 09:10:06;;;;;;;18.02;15.15;;;9.60;85.20;;;;;;5037205;28;20108;-82
2022/12/11 09:12:33;;;;;;;16.48;14.30;;;9.60;85.20;;;;;;5054275;28;20449;-80
2022/12/11 09:14:59;;;;;;;17.33;14.85;;;9.60;85.20;;;;;;5037409;28;20059;-80
2022/12/11 09:17:24;;;;;;;17.20;14.30;;;9.50;85.10;;;;;;5036627;28;20021;-80
2022/12/11 09:19:50;;;;;;;16.33;14.35;;;9.60;85.20;;;;;;5038090;28;20029;-83
2022/12/11 09:22:15;;;;;;;16.60;14.35;;;9.50;85.10;;;;;;5037836;28;20607;-80
2022/12/11 09:24:41;;;;;;;17.52;15.27;;;9.50;85.10;;;;;;5038324;28;20028;-80
2022/12/11 09:27:07;;;;;;;16.73;14.40;;;9.60;85.10;;;;;;5038647;28;20502;-80
2022/12/11 09:29:32;;;;;;;16.45;14.75;;;9.60;85.10;;;;;;5038688;28;20397;-81
2022/12/11 09:31:58;;;;;;;16.70;14.63;;;9.60;85.20;;;;;;5056089;28;20525;-81
2022/12/11 09:34:24;;;;;;;17.50;15.40;;;9.60;85.10;;;;;;5054938;28;20143;-82
2022/12/11 09:36:49;;;;;;;20.02;15.43;;;9.60;85.10;;;;;;5037189;28;20029;-81
2022/12/11 09:39:16;;;;;;;16.92;15.13;;;9.50;85.00;;;;;;5037876;28;20036;-82
2022/12/11 09:41:59;;;;;;;17.30;15.45;;;9.60;85.10;;;;;;5038964;28;20080;-80
2022/12/11 09:44:40;;;;;;;16.48;14.25;;;9.60;85.10;;;;;;5038148;28;20033;-81
2022/12/11 09:47:15;;;;;;;18.90;15.10;;;9.50;85.00;;;;;;5056905;28;20031;-82
2022/12/11 09:49:43;;;;;;;17.88;14.98;;;9.60;85.00;;;;;;5037690;28;20035;-81
2022/12/11 09:52:22;;;;;;;15.85;14.15;;;9.60;85.00;;;;;;5036608;28;20029;-81
2022/12/11 09:54:57;;;;;;;18.00;15.02;;;9.60;85.00;;;;;;5037370;28;20029;-82
2022/12/11 09:57:31;;;;;;;16.88;15.05;;;9.60;84.90;;;;;;5055878;28;20025;-81
2022/12/11 10:00:13;;;;;;;17.67;15.00;;;9.50;84.90;;;;;;5038452;28;20029;-81
2022/12/11 10:02:45;;;;;;;15.88;14.23;;;9.60;84.90;;;;;;5038615;28;20025;-80
2022/12/11 10:05:13;;;;;;;15.35;13.75;;;9.60;84.90;;;;;;5044244;28;20021;-81
2022/12/11 10:08:24;;;;;;;15.75;14.07;;;9.60;84.90;;;;;;5037421;28;20534;-82
2022/12/11 10:11:00;;;;;;;16.45;14.65;;;9.60;84.80;;;;;;5011394;28;20025;-81
2022/12/11 10:13:59;;;;;;;16.40;14.70;;;9.50;84.80;;;;;;5040799;28;20021;-80
2022/12/11 10:16:47;;;;;;;18.23;15.55;;;9.60;84.80;;;;;;5057657;28;20021;-81
2022/12/11 10:19:20;;;;;;;19.50;15.40;;;9.60;84.80;;;;;;5057897;28;20048;-83
2022/12/11 10:21:48;;;;;;;15.93;14.23;;;9.60;84.80;;;;;;5041305;28;20124;-83
2022/12/11 10:24:20;;;;;;;16.25;14.40;;;9.60;84.80;;;;;;5062600;28;20025;-82
2022/12/11 10:26:46;;;;;;;18.23;15.00;;;9.60;84.80;;;;;;5057449;28;20025;-81
2022/12/11 10:29:14;;;;;;;17.25;15.45;;;9.60;84.80;;;;;;5042656;28;20032;-82
2022/12/11 10:31:56;;;;;;;17.88;15.98;;;9.60;84.90;;;;;;5024495;28;20048;-83
2022/12/11 10:34:34;;;;;;;16.52;14.82;;;9.60;84.90;;;;;;5043230;28;20021;-84
2022/12/11 10:37:00;;;;;;;16.65;14.85;;;9.60;84.80;;;;;;5040817;28;20020;-83
2022/12/11 10:39:26;;;;;;;17.23;14.98;;;9.50;84.90;;;;;;5060547;28;20033;-81
2022/12/11 10:41:54;;;;;;;16.55;14.85;;;9.60;84.90;;;;;;5060416;28;20037;-81
2022/12/11 10:44:26;;;;;;;16.85;15.05;;;9.50;84.90;;;;;;5054857;28;20044;-82
2022/12/11 10:47:05;;;;;;;16.48;14.77;;;9.60;84.80;;;;;;5042750;28;20047;-81
2022/12/11 10:49:33;;;;;;;15.77;14.07;;;9.60;84.70;;;;;;5057995;28;20393;-81
2022/12/11 10:52:01;;;;;;;15.75;14.15;;;9.60;84.90;;;;;;5038748;28;20021;-81
2022/12/11 10:54:34;;;;;;;16.30;14.65;;;9.60;84.60;;;;;;5038109;28;20035;-81
2022/12/11 10:57:02;;;;;;;15.93;14.32;;;9.60;84.50;;;;;;5056877;28;20025;-81
2022/12/11 10:59:39;;;;;;;15.25;13.73;;;9.60;84.60;;;;;;5056741;28;20453;-81
2022/12/11 11:02:14;;;;;;;16.65;14.63;;;9.70;84.70;;;;;;5038862;28;20028;-81
2022/12/11 11:04:43;;;;;;;16.20;14.07;;;9.60;84.60;;;;;;5056382;28;20033;-81
2022/12/11 11:07:22;;;;;;;15.15;13.65;;;9.60;84.60;;;;;;5056995;28;20112;-81
2022/12/11 11:09:49;;;;;;;16.17;14.27;;;9.60;84.50;;;;;;5038084;28;20053;-81
2022/12/11 11:12:25;;;;;;;15.10;13.52;;;9.70;84.40;;;;;;5054812;28;20028;-81
2022/12/11 11:15:09;;;;;;;14.82;13.10;;;9.60;84.40;;;;;;5038824;28;20017;-81
2022/12/11 11:17:42;;;;;;;16.52;13.82;;;9.60;84.50;;;;;;5056405;28;20041;-80
2022/12/11 11:20:24;;;;;;;14.73;13.23;;;9.60;84.50;;;;;;5056863;28;20558;-81
2022/12/11 11:22:54;;;;;;;15.35;13.75;;;9.60;84.50;;;;;;5055774;28;20481;-80
2022/12/11 11:25:32;;;;;;;16.02;14.32;;;9.60;84.60;;;;;;5055829;28;20037;-81
2022/12/11 11:28:04;;;;;;;15.60;14.00;;;9.60;84.70;;;;;;5037023;28;20025;-81
2022/12/11 11:30:38;;;;;;;15.93;14.23;;;9.60;84.70;;;;;;5037397;28;20021;-80
2022/12/11 11:33:16;;;;;;;15.38;13.80;;;9.50;84.70;;;;;;5036888;28;20041;-80
2022/12/11 11:35:55;;;;;;;15.23;13.30;;;9.60;84.80;;;;;;5036850;28;20029;-80
2022/12/11 11:38:24;;;;;;;15.10;13.55;;;9.50;84.80;;;;;;5037441;28;20022;-80
2022/12/11 11:41:11;;;;;;;14.95;13.35;;;9.50;84.80;;;;;;5056644;28;20047;-81
2022/12/11 11:43:51;;;;;;;14.75;13.05;;;9.50;84.80;;;;;;5039809;28;20356;-81
2022/12/11 11:46:22;;;;;;;14.48;12.98;;;9.50;84.80;;;;;;5056584;28;20025;-81
2022/12/11 11:48:56;;;;;;;14.48;13.02;;;9.50;84.90;;;;;;5057086;28;20044;-81
2022/12/11 11:51:26;;;;;;;15.70;14.10;;;9.50;84.80;;;;;;5056536;28;20021;-81
2022/12/11 11:53:55;;;;;;;16.27;14.25;;;9.50;84.90;;;;;;5039146;28;20032;-80
2022/12/11 11:56:25;;;;;;;15.80;14.20;;;9.50;84.90;;;;;;5038725;28;20051;-80
2022/12/11 11:58:55;;;;;;;15.48;13.82;;;9.50;84.90;;;;;;5054426;28;20033;-79
2022/12/11 12:01:21;;;;;;;16.23;14.70;;;9.50;84.90;;;;;;5036654;28;20460;-80
2022/12/11 12:03:48;;;;;;;15.00;13.40;;;9.50;84.80;;;;;;5055830;28;20057;-81
2022/12/11 12:06:37;;;;;;;15.60;14.00;;;9.50;84.90;;;;;;5038017;28;20482;-79
2022/12/11 12:09:34;;;;;;;15.50;13.90;;;9.50;84.80;;;;;;5037132;28;20043;-81
2022/12/11 12:12:14;;;;;;;14.82;13.07;;;9.50;84.80;;;;;;5054560;28;20021;-80
2022/12/11 12:15:13;;;;;;;14.02;12.68;;;9.50;84.80;;;;;;5037469;28;20017;-80
2022/12/11 12:17:50;;;;;;;14.95;13.30;;;9.50;84.80;;;;;;5055711;28;20032;-80
2022/12/11 12:20:34;;;;;;;15.27;13.75;;;9.50;84.80;;;;;;5037219;28;20053;-81
2022/12/11 12:23:19;;;;;;;14.80;13.30;;;9.50;84.80;;;;;;5054961;28;20569;-81
2022/12/11 12:26:12;;;;;;;14.75;13.20;;;9.50;84.80;;;;;;5037158;28;20120;-81
2022/12/11 12:29:03;;;;;;;14.77;13.27;;;9.50;84.80;;;;;;5054707;28;20552;-81
2022/12/11 12:31:59;;;;;;;15.05;13.38;;;9.50;84.70;;;;;;5036457;28;20039;-79
2022/12/11 12:34:45;;;;;;;15.18;13.57;;;9.50;84.70;;;;;;5036383;28;20040;-80
2022/12/11 12:37:44;;;;;;;14.68;13.18;;;9.50;84.70;;;;;;5054560;28;20028;-81
2022/12/11 12:40:13;;;;;;;15.38;13.90;;;9.50;84.70;;;;;;4985403;28;20450;-81
2022/12/11 12:43:00;;;;;;;13.65;12.35;;;9.50;84.70;;;;;;5035868;28;20049;-80
2022/12/11 12:45:49;;;;;;;16.38;13.25;;;9.50;84.70;;;;;;5036271;28;20489;-78
2022/12/11 12:48:16;;;;;;;14.93;13.43;;;9.50;84.70;;;;;;5035885;28;20404;-80
2022/12/11 12:50:44;;;;;;;13.88;12.50;;;9.50;84.70;;;;;;5035850;28;20457;-80
2022/12/11 12:53:18;;;;;;;14.48;13.05;;;9.50;84.70;;;;;;5053949;28;20038;-80
2022/12/11 12:55:45;;;;;;;14.90;13.45;;;9.50;84.70;;;;;;5035683;28;20100;-81
2022/12/11 13:01:22;;;;;;;14.73;13.25;;;9.50;85.20;;;;;;5076979;23;20076;-81
2022/12/11 13:04:01;;;;;;;15.20;13.70;;;9.50;84.70;;;;;;5022693;28;20021;-81